Time;durP1;ratioP1;P1;durP2;ratioP2;P2;SDS_P1;SDS_P2;PMS_P1;PMS_P2;Temp;Humidity;BMP_temperature;BMP_pressure;BME280_temperature;BME280_humidity;BME280_pressure;Samples;Min_cycle;Max_cycle;Signal;HPM_P1;HPM_P2
2023/11/26 00:08:30;;;;;;;;;;;4.60;99.90;;;;;;6721416;88;20060;-77
2023/11/26 00:18:30;;;;;;;;;;;4.50;99.90;;;;;;6724288;88;20063;-78
2023/11/26 00:28:31;;;;;;;;;;;4.60;99.90;;;;;;6716803;88;20046;-79
2023/11/26 00:38:32;;;;;;;;;;;4.50;99.90;;;;;;6718712;88;20050;-78
2023/11/26 00:48:32;;;;;;;;;;;4.50;99.90;;;;;;6721892;88;20146;-77
2023/11/26 00:58:32;;;;;;;;;;;4.50;99.90;;;;;;6720909;88;20201;-77
2023/11/26 01:08:33;;;;;;;;;;;4.50;99.90;;;;;;6722147;88;20120;-77
2023/11/26 01:18:33;;;;;;;;;;;4.50;99.90;;;;;;6723200;88;20081;-78
2023/11/26 01:28:34;;;;;;;;;;;4.40;99.90;;;;;;6724059;88;20666;-77
2023/11/26 01:38:34;;;;;;;;;;;4.50;99.90;;;;;;6725572;88;20088;-77
2023/11/26 01:48:35;;;;;;;;;;;4.40;99.90;;;;;;6720949;88;20261;-78
2023/11/26 01:58:36;;;;;;;;;;;4.40;99.90;;;;;;6718410;88;20072;-77
2023/11/26 02:08:36;;;;;;;;;;;4.40;99.90;;;;;;6718248;88;20081;-77
2023/11/26 02:18:37;;;;;;;;;;;4.30;99.90;;;;;;6723690;88;20163;-78
2023/11/26 02:28:40;;;;;;;;;;;4.50;99.90;;;;;;6721468;88;20072;-78
2023/11/26 02:38:40;;;;;;;;;;;4.40;99.90;;;;;;6715751;88;20237;-78
2023/11/26 02:48:41;;;;;;;;;;;4.40;99.90;;;;;;6715235;88;20058;-77
2023/11/26 02:58:42;;;;;;;;;;;4.40;99.90;;;;;;6721417;88;20487;-78
2023/11/26 03:08:43;;;;;;;;;;;4.40;99.90;;;;;;6719404;88;20506;-78
2023/11/26 03:18:43;;;;;;;;;;;4.30;99.90;;;;;;6720850;88;20069;-78
2023/11/26 03:28:45;;;;;;;;;;;4.30;99.90;;;;;;6726002;88;20076;-78
2023/11/26 03:38:45;;;;;;;;;;;4.40;99.90;;;;;;6721606;88;20646;-77
2023/11/26 03:48:46;;;;;;;;;;;4.40;99.90;;;;;;6723040;88;20067;-77
2023/11/26 03:58:46;;;;;;;;;;;4.40;99.90;;;;;;6718447;88;20071;-77
2023/11/26 04:08:47;;;;;;;;;;;4.40;99.90;;;;;;6714745;88;20051;-76
2023/11/26 04:18:47;;;;;;;;;;;4.30;99.90;;;;;;6717516;88;20089;-77
2023/11/26 04:28:48;;;;;;;;;;;4.40;99.90;;;;;;6715674;88;20081;-77
2023/11/26 04:38:48;;;;;;;;;;;4.40;99.90;;;;;;6721515;88;20047;-77
2023/11/26 04:48:49;;;;;;;;;;;4.40;99.90;;;;;;6719873;88;20089;-77
2023/11/26 04:58:50;;;;;;;;;;;4.40;99.90;;;;;;6721671;88;20116;-77
2023/11/26 05:08:50;;;;;;;;;;;4.30;99.90;;;;;;6717838;88;20092;-77
2023/11/26 05:18:51;;;;;;;;;;;4.30;99.90;;;;;;6722501;88;20688;-77
2023/11/26 05:28:51;;;;;;;;;;;4.20;99.90;;;;;;6717420;88;20051;-77
2023/11/26 05:38:52;;;;;;;;;;;4.10;99.90;;;;;;6723061;88;20094;-77
2023/11/26 05:48:52;;;;;;;;;;;4.00;99.90;;;;;;6714324;88;20074;-77
2023/11/26 05:58:53;;;;;;;;;;;3.90;99.90;;;;;;6719324;88;20066;-77
2023/11/26 06:08:53;;;;;;;;;;;4.00;99.90;;;;;;6716439;88;20109;-78
2023/11/26 06:18:53;;;;;;;;;;;4.00;99.90;;;;;;6724988;88;20861;-77
2023/11/26 06:28:54;;;;;;;;;;;3.90;99.90;;;;;;6717962;88;20122;-78
2023/11/26 06:38:55;;;;;;;;;;;3.90;99.90;;;;;;6718146;88;20092;-77
2023/11/26 06:48:56;;;;;;;;;;;4.00;99.90;;;;;;6719524;88;20051;-78
2023/11/26 06:58:56;;;;;;;;;;;4.10;99.90;;;;;;6716122;88;20066;-77
2023/11/26 07:08:57;;;;;;;;;;;4.00;99.90;;;;;;6720083;88;20611;-77
2023/11/26 07:18:57;;;;;;;;;;;4.00;99.90;;;;;;6715354;88;20084;-77
2023/11/26 07:28:58;;;;;;;;;;;3.90;99.90;;;;;;6716458;88;20608;-76
2023/11/26 07:38:58;;;;;;;;;;;3.80;99.90;;;;;;6724881;88;20084;-77
2023/11/26 07:48:59;;;;;;;;;;;3.90;99.90;;;;;;6724772;88;20501;-77
2023/11/26 07:59:05;;;;;;;;;;;4.00;99.90;;;;;;6727337;88;20066;-77
2023/11/26 08:09:10;;;;;;;;;;;4.10;99.90;;;;;;6721638;88;20079;-79
2023/11/26 08:19:17;;;;;;;;;;;4.30;99.90;;;;;;6727398;88;20067;-79
2023/11/26 08:29:19;;;;;;;;;;;4.70;99.90;;;;;;6727212;88;20169;-79
2023/11/26 08:39:26;;;;;;;;;;;4.90;99.90;;;;;;6739303;88;20103;-78
2023/11/26 08:49:28;;;;;;;;;;;5.00;99.90;;;;;;6737521;88;20229;-79
2023/11/26 08:59:28;;;;;;;;;;;5.20;99.90;;;;;;6703903;88;20495;-79
2023/11/26 09:09:29;;;;;;;;;;;5.40;99.90;;;;;;6703569;88;20051;-79
2023/11/26 09:19:29;;;;;;;;;;;5.60;99.90;;;;;;6708262;88;20072;-78
2023/11/26 09:29:29;;;;;;;;;;;5.80;99.90;;;;;;6723486;88;20075;-78
2023/11/26 09:39:31;;;;;;;;;;;6.00;99.90;;;;;;6725420;88;20089;-79
2023/11/26 09:49:32;;;;;;;;;;;6.20;99.90;;;;;;6731159;88;20097;-81
2023/11/26 09:59:33;;;;;;;;;;;6.50;99.90;;;;;;6725760;88;20556;-78
2023/11/26 10:09:34;;;;;;;;;;;6.60;99.90;;;;;;6722167;88;20063;-78
2023/11/26 10:19:34;;;;;;;;;;;6.70;99.90;;;;;;6724502;88;20079;-78
2023/11/26 10:29:40;;;;;;;;;;;6.80;99.90;;;;;;6722350;88;20050;-78
2023/11/26 10:39:40;;;;;;;;;;;6.70;99.90;;;;;;6726279;88;20055;-78
2023/11/26 10:49:44;;;;;;;;;;;6.90;99.90;;;;;;6723420;88;20614;-79
2023/11/26 10:59:47;;;;;;;;;;;6.90;99.90;;;;;;6723731;88;20074;-78
2023/11/26 11:09:52;;;;;;;;;;;7.10;99.90;;;;;;6723223;88;20051;-79
2023/11/26 11:19:53;;;;;;;;;;;7.30;99.90;;;;;;6723501;88;20082;-79
2023/11/26 11:29:54;;;;;;;;;;;7.20;99.90;;;;;;6725458;88;20119;-78
2023/11/26 11:39:57;;;;;;;;;;;7.20;99.90;;;;;;6723875;88;20137;-79
2023/11/26 11:50:01;;;;;;;;;;;7.20;99.90;;;;;;6723685;88;20081;-79
2023/11/26 12:00:04;;;;;;;;;;;7.30;99.90;;;;;;6723568;88;20097;-79
2023/11/26 12:10:04;;;;;;;;;;;7.30;99.90;;;;;;6725325;88;20545;-79
2023/11/26 12:20:06;;;;;;;;;;;7.50;99.90;;;;;;6722989;88;20067;-80
2023/11/26 12:30:11;;;;;;;;;;;7.50;99.90;;;;;;6723301;88;20076;-79
2023/11/26 12:40:11;;;;;;;;;;;7.60;99.90;;;;;;6726197;88;20057;-78
2023/11/26 12:50:12;;;;;;;;;;;7.50;99.90;;;;;;6723744;88;20087;-79
2023/11/26 13:00:13;;;;;;;;;;;7.30;99.90;;;;;;6724638;88;20518;-78
2023/11/26 13:10:13;;;;;;;;;;;7.20;99.90;;;;;;6721316;88;20053;-79
2023/11/26 13:20:16;;;;;;;;;;;7.30;99.90;;;;;;6721767;88;20106;-80
2023/11/26 13:30:17;;;;;;;;;;;7.20;99.90;;;;;;6721697;88;20067;-77
2023/11/26 13:40:18;;;;;;;;;;;7.10;99.90;;;;;;6719458;88;20069;-77
2023/11/26 13:50:19;;;;;;;;;;;6.70;99.90;;;;;;6719044;88;20047;-78
2023/11/26 14:00:24;;;;;;;;;;;6.70;99.90;;;;;;6724174;88;20051;-79
2023/11/26 14:10:26;;;;;;;;;;;6.60;99.90;;;;;;6719249;88;20074;-78
2023/11/26 14:20:27;;;;;;;;;;;6.50;99.90;;;;;;6731948;88;20085;-78
2023/11/26 14:30:27;;;;;;;;;;;6.40;99.90;;;;;;6723398;88;20059;-78
2023/11/26 14:40:28;;;;;;;;;;;6.40;99.90;;;;;;6727037;88;20071;-79
2023/11/26 14:50:28;;;;;;;;;;;6.30;99.90;;;;;;6728029;88;20062;-79
2023/11/26 15:00:29;;;;;;;;;;;6.30;99.90;;;;;;6722060;88;20548;-77
2023/11/26 15:10:29;;;;;;;;;;;6.30;99.90;;;;;;6711468;88;20074;-79
2023/11/26 15:20:30;;;;;;;;;;;6.30;99.90;;;;;;6719379;88;20075;-79
2023/11/26 15:40:41;;;;;;;;;;;6.20;99.90;;;;;;6740949;88;20066;-81
2023/11/26 15:50:42;;;;;;;;;;;6.10;99.90;;;;;;6738816;88;20054;-80
2023/11/26 16:00:43;;;;;;;;;;;6.00;99.90;;;;;;6730763;88;20079;-79
2023/11/26 16:10:44;;;;;;;;;;;5.90;99.90;;;;;;6726035;88;20059;-80
2023/11/26 16:20:46;;;;;;;;;;;5.90;99.90;;;;;;6724157;88;20071;-79
2023/11/26 16:30:46;;;;;;;;;;;5.80;99.90;;;;;;6730543;88;20051;-79
2023/11/26 16:40:47;;;;;;;;;;;5.80;99.90;;;;;;6732894;88;20529;-80
2023/11/26 16:50:48;;;;;;;;;;;5.70;99.90;;;;;;6722768;88;20058;-80
2023/11/26 17:00:49;;;;;;;;;;;5.70;99.90;;;;;;6729760;88;20077;-79
2023/11/26 17:10:50;;;;;;;;;;;5.70;99.90;;;;;;6736199;88;20333;-79
2023/11/26 17:20:50;;;;;;;;;;;5.70;99.90;;;;;;6736405;88;20079;-79
2023/11/26 17:30:51;;;;;;;;;;;5.60;99.90;;;;;;6734171;88;20098;-79
2023/11/26 17:40:51;;;;;;;;;;;5.50;99.90;;;;;;6731748;88;20078;-80
2023/11/26 17:50:52;;;;;;;;;;;5.50;99.90;;;;;;6731036;88;20137;-79
2023/11/26 18:00:52;;;;;;;;;;;5.50;99.90;;;;;;6730050;88;20087;-79
2023/11/26 18:10:53;;;;;;;;;;;5.50;99.90;;;;;;6733518;88;20055;-81
2023/11/26 18:20:53;;;;;;;;;;;5.50;99.90;;;;;;6730894;88;20079;-80
2023/11/26 18:30:54;;;;;;;;;;;5.50;99.90;;;;;;6723828;88;20062;-79
2023/11/26 18:40:54;;;;;;;;;;;5.40;99.90;;;;;;6722773;88;20115;-78
2023/11/26 18:50:55;;;;;;;;;;;5.30;99.90;;;;;;6734206;88;20073;-79
2023/11/26 19:00:55;;;;;;;;;;;5.40;99.90;;;;;;6730442;88;20087;-79
2023/11/26 19:10:56;;;;;;;;;;;5.40;99.90;;;;;;6732237;88;20076;-78
2023/11/26 19:20:56;;;;;;;;;;;5.40;99.90;;;;;;6736834;88;20078;-78
2023/11/26 19:30:56;;;;;;;;;;;5.30;99.90;;;;;;6732052;88;20057;-79
2023/11/26 19:40:57;;;;;;;;;;;5.40;99.90;;;;;;6729425;88;20173;-79
2023/11/26 19:50:58;;;;;;;;;;;5.40;99.90;;;;;;6711938;88;20565;-78
2023/11/26 20:00:59;;;;;;;;;;;5.30;99.90;;;;;;6714395;88;20584;-77
2023/11/26 20:11:00;;;;;;;;;;;5.30;99.90;;;;;;6718685;88;20067;-75
2023/11/26 20:21:04;;;;;;;;;;;5.30;99.90;;;;;;6728199;88;20115;-80
2023/11/26 20:31:04;;;;;;;;;;;5.30;99.90;;;;;;6731014;88;20551;-78
2023/11/26 20:41:06;;;;;;;;;;;5.30;99.90;;;;;;6725918;88;20121;-79
2023/11/26 20:51:07;;;;;;;;;;;5.20;99.90;;;;;;6732809;88;20092;-79
2023/11/26 21:01:09;;;;;;;;;;;5.10;99.90;;;;;;6730756;88;20574;-77
2023/11/26 21:11:10;;;;;;;;;;;5.10;99.90;;;;;;6730410;88;20654;-78
2023/11/26 21:21:10;;;;;;;;;;;5.00;99.90;;;;;;6730650;88;20078;-82
2023/11/26 21:41:14;;;;;;;;;;;5.10;99.90;;;;;;6742426;88;20114;-80
2023/11/26 21:51:15;;;;;;;;;;;4.90;99.90;;;;;;6744644;88;20047;-81
2023/11/26 22:01:15;;;;;;;;;;;5.00;99.90;;;;;;6746133;88;20666;-79
2023/11/26 22:11:18;;;;;;;;;;;4.90;99.90;;;;;;6748684;88;20196;-79
2023/11/26 22:21:19;;;;;;;;;;;4.80;99.90;;;;;;6746995;88;20134;-79
2023/11/26 22:31:20;;;;;;;;;;;4.90;99.90;;;;;;6739532;88;20055;-78
2023/11/26 22:41:21;;;;;;;;;;;4.70;99.90;;;;;;6729179;88;20043;-79
2023/11/26 22:51:22;;;;;;;;;;;4.80;99.90;;;;;;6736903;88;20046;-78
2023/11/26 23:01:23;;;;;;;;;;;4.80;99.90;;;;;;6739097;88;20048;-77
2023/11/26 23:11:23;;;;;;;;;;;4.80;99.90;;;;;;6729711;88;20085;-78
2023/11/26 23:21:24;;;;;;;;;;;4.70;99.90;;;;;;6731469;88;20091;-78
2023/11/26 23:31:25;;;;;;;;;;;4.80;99.90;;;;;;6728453;88;20087;-77
2023/11/26 23:41:26;;;;;;;;;;;4.70;99.90;;;;;;6726356;88;20086;-77
2023/11/26 23:51:26;;;;;;;;;;;4.70;99.90;;;;;;6725347;88;20089;-78
